createdAt,value
2019-05-18T00:00:45.476Z,100.00
2019-05-18T00:03:14.161Z,100.00
2019-05-18T00:05:42.850Z,100.00
2019-05-18T00:08:11.680Z,100.00
2019-05-18T00:10:40.327Z,100.00
2019-05-18T00:13:09.315Z,100.00
2019-05-18T00:15:38.000Z,100.00
2019-05-18T00:18:06.703Z,100.00
2019-05-18T00:20:35.477Z,100.00
2019-05-18T00:23:04.148Z,100.00
2019-05-18T00:25:32.953Z,100.00
2019-05-18T00:28:01.648Z,100.00
2019-05-18T00:30:31.846Z,100.00
2019-05-18T00:33:00.556Z,100.00
2019-05-18T00:35:29.338Z,100.00
2019-05-18T00:37:58.030Z,100.00
2019-05-18T00:40:26.812Z,100.00
2019-05-18T00:42:56.367Z,100.00
2019-05-18T00:45:24.952Z,100.00
2019-05-18T00:47:53.691Z,100.00
2019-05-18T00:50:23.920Z,100.00
2019-05-18T00:52:52.602Z,100.00
2019-05-18T00:55:21.795Z,100.00
2019-05-18T00:57:50.495Z,100.00
2019-05-18T01:00:19.472Z,100.00
2019-05-18T01:02:48.274Z,100.00
2019-05-18T01:05:17.059Z,100.00
2019-05-18T01:07:45.852Z,100.00
2019-05-18T01:10:14.733Z,100.00
2019-05-18T01:12:43.526Z,100.00
2019-05-18T01:15:12.441Z,100.00
2019-05-18T01:17:56.167Z,100.00
2019-05-18T01:20:11.720Z,100.00
2019-05-18T01:22:42.092Z,100.00
2019-05-18T01:25:11.170Z,100.00
2019-05-18T01:27:39.841Z,100.00
2019-05-18T01:30:10.806Z,100.00
2019-05-18T01:32:39.568Z,100.00
2019-05-18T01:35:08.682Z,100.00
2019-05-18T01:37:37.467Z,100.00
2019-05-18T01:40:07.793Z,100.00
2019-05-18T01:42:36.572Z,100.00
2019-05-18T01:45:16.983Z,100.00
2019-05-18T01:47:39.223Z,100.00
2019-05-18T01:50:08.680Z,100.00
2019-05-18T01:52:37.460Z,100.00
2019-05-18T01:55:06.663Z,100.00
2019-05-18T01:57:35.352Z,100.00
2019-05-18T02:00:05.385Z,100.00
2019-05-18T02:02:34.149Z,100.00
2019-05-18T02:05:03.051Z,100.00
2019-05-18T02:07:31.725Z,100.00
2019-05-18T02:10:00.405Z,100.00
2019-05-18T02:12:29.119Z,100.00
2019-05-18T02:14:58.065Z,100.00
2019-05-18T02:17:26.777Z,100.00
2019-05-18T02:19:55.464Z,100.00
2019-05-18T02:22:24.253Z,100.00
2019-05-18T02:24:53.041Z,100.00
2019-05-18T02:27:21.662Z,100.00
2019-05-18T02:29:50.835Z,100.00
2019-05-18T02:32:19.627Z,100.00
2019-05-18T02:34:48.311Z,100.00
2019-05-18T02:37:17.093Z,100.00
2019-05-18T02:39:45.984Z,100.00
2019-05-18T02:42:14.682Z,100.00
2019-05-18T02:44:43.401Z,100.00
2019-05-18T02:47:12.159Z,100.00
2019-05-18T02:49:40.789Z,100.00
2019-05-18T02:52:09.520Z,100.00
2019-05-18T02:54:38.181Z,100.00
2019-05-18T02:57:06.899Z,100.00
2019-05-18T02:59:35.688Z,100.00
2019-05-18T03:02:04.468Z,100.00
2019-05-18T03:04:33.428Z,100.00
2019-05-18T03:07:02.195Z,100.00
2019-05-18T03:09:30.849Z,100.00
2019-05-18T03:11:59.634Z,100.00
2019-05-18T03:14:28.414Z,100.00
2019-05-18T03:16:57.211Z,100.00
2019-05-18T03:19:25.894Z,100.00
2019-05-18T03:21:54.685Z,100.00
2019-05-18T03:24:23.368Z,100.00
2019-05-18T03:26:52.153Z,100.00
2019-05-18T03:29:20.841Z,100.00
2019-05-18T03:31:49.680Z,100.00
2019-05-18T03:34:18.769Z,100.00
2019-05-18T03:36:48.238Z,100.00
2019-05-18T03:39:17.232Z,100.00
2019-05-18T03:41:45.905Z,100.00
2019-05-18T03:44:15.010Z,100.00
2019-05-18T03:46:43.791Z,100.00
2019-05-18T03:49:26.030Z,100.00
2019-05-18T03:51:42.915Z,100.00
2019-05-18T03:54:11.696Z,100.00
2019-05-18T03:56:40.483Z,100.00
2019-05-18T03:59:09.281Z,100.00
2019-05-18T04:01:38.067Z,100.00
2019-05-18T04:04:06.853Z,100.00
2019-05-18T04:06:35.651Z,100.00
2019-05-18T04:09:05.801Z,100.00
2019-05-18T04:11:34.460Z,100.00
2019-05-18T04:14:08.126Z,100.00
2019-05-18T04:16:34.911Z,100.00
2019-05-18T04:19:03.793Z,100.00
2019-05-18T04:21:32.478Z,100.00
2019-05-18T04:24:01.172Z,100.00
2019-05-18T04:26:29.953Z,100.00
2019-05-18T04:28:58.735Z,100.00
2019-05-18T04:31:31.348Z,100.00
2019-05-18T04:33:57.841Z,100.00
2019-05-18T04:36:26.538Z,100.00
2019-05-18T04:38:55.217Z,100.00
2019-05-18T04:41:23.826Z,100.00
2019-05-18T04:43:52.600Z,100.00
2019-05-18T04:46:21.284Z,100.00
2019-05-18T04:48:50.085Z,100.00
2019-05-18T04:51:21.869Z,100.00
2019-05-18T04:53:50.627Z,100.00
2019-05-18T04:56:21.547Z,100.00
2019-05-18T04:58:50.365Z,100.00
2019-05-18T05:01:19.485Z,100.00
2019-05-18T05:03:48.136Z,100.00
2019-05-18T05:06:16.926Z,100.00
2019-05-18T05:08:45.534Z,100.00
2019-05-18T05:11:16.746Z,100.00
2019-05-18T05:13:48.739Z,100.00
2019-05-18T05:16:38.921Z,100.00
2019-05-18T05:19:08.801Z,100.00
2019-05-18T05:21:40.066Z,100.00
2019-05-18T05:24:08.852Z,100.00
2019-05-18T05:26:39.509Z,100.00
2019-05-18T05:29:07.973Z,100.00
2019-05-18T05:31:36.614Z,100.00
2019-05-18T05:34:06.684Z,100.00
2019-05-18T05:36:35.355Z,100.00
2019-05-18T05:39:05.678Z,100.00
2019-05-18T05:41:34.671Z,100.00
2019-05-18T05:44:03.463Z,100.00
2019-05-18T05:46:32.151Z,100.00
2019-05-18T05:49:00.944Z,100.00
2019-05-18T05:51:29.624Z,100.00
2019-05-18T05:53:58.409Z,100.00
2019-05-18T05:56:27.107Z,100.00
2019-05-18T05:58:55.822Z,100.00
2019-05-18T06:01:24.498Z,100.00
2019-05-18T06:03:53.254Z,100.00
2019-05-18T06:06:23.184Z,100.00
2019-05-18T06:08:53.402Z,100.00
2019-05-18T06:11:22.190Z,100.00
2019-05-18T06:13:53.861Z,100.00
2019-05-18T06:16:22.650Z,100.00
2019-05-18T06:18:51.334Z,100.00
2019-05-18T06:21:20.128Z,100.00
2019-05-18T06:23:49.115Z,100.00
2019-05-18T06:26:17.892Z,100.00
2019-05-18T06:28:46.680Z,100.00
2019-05-18T06:31:15.375Z,100.00
2019-05-18T06:33:44.351Z,100.00
2019-05-18T06:36:13.054Z,100.00
2019-05-18T06:38:42.340Z,100.00
2019-05-18T06:41:11.030Z,100.00
2019-05-18T06:43:39.831Z,95.27
2019-05-18T06:46:08.504Z,96.98
2019-05-18T06:48:37.395Z,97.14
2019-05-18T06:51:07.526Z,98.01
2019-05-18T06:53:36.614Z,90.93
2019-05-18T06:56:05.877Z,85.87
2019-05-18T06:58:35.620Z,92.02
2019-05-18T07:01:04.944Z,92.67
2019-05-18T07:03:33.939Z,96.01
2019-05-18T07:06:04.173Z,81.89
2019-05-18T07:08:32.935Z,83.71
2019-05-18T07:11:01.637Z,79.72
2019-05-18T07:13:30.304Z,79.07
2019-05-18T07:15:59.067Z,73.85
2019-05-18T07:18:27.697Z,69.15
2019-05-18T07:20:57.987Z,65.48
2019-05-18T07:23:26.908Z,70.66
2019-05-18T07:25:55.638Z,67.82
2019-05-18T07:28:24.367Z,72.79
2019-05-18T07:30:53.067Z,73.04
2019-05-18T07:33:21.778Z,72.09
2019-05-18T07:35:50.472Z,69.46
2019-05-18T07:38:19.191Z,65.47
2019-05-18T07:40:47.850Z,67.36
2019-05-18T07:43:16.535Z,64.58
2019-05-18T07:45:45.262Z,58.79
2019-05-18T07:48:13.933Z,64.75
2019-05-18T07:50:42.871Z,61.04
2019-05-18T07:53:14.642Z,67.91
2019-05-18T07:55:43.512Z,65.05
2019-05-18T07:58:12.672Z,64.93
2019-05-18T08:00:43.171Z,60.60
2019-05-18T08:03:11.888Z,63.77
2019-05-18T08:05:40.558Z,63.45
2019-05-18T08:08:09.237Z,65.82
2019-05-18T08:10:43.505Z,52.44
2019-05-18T08:13:10.980Z,52.33
2019-05-18T08:15:39.605Z,60.08
2019-05-18T08:18:08.275Z,59.30
2019-05-18T08:20:37.121Z,55.99
2019-05-18T08:23:05.800Z,52.64
2019-05-18T08:25:34.433Z,51.84
2019-05-18T08:28:03.103Z,51.70
2019-05-18T08:30:31.786Z,59.35
2019-05-18T08:33:00.491Z,59.97
2019-05-18T08:35:29.154Z,57.20
2019-05-18T08:37:57.846Z,58.28
2019-05-18T08:40:26.481Z,59.84
2019-05-18T08:42:55.175Z,61.32
2019-05-18T08:45:25.292Z,49.80
2019-05-18T08:47:53.981Z,59.42
2019-05-18T08:50:22.604Z,52.97
2019-05-18T08:52:51.298Z,56.09
2019-05-18T08:55:20.038Z,48.79
2019-05-18T08:57:48.719Z,59.32
2019-05-18T09:00:17.839Z,51.92
2019-05-18T09:02:46.470Z,45.90
2019-05-18T09:05:15.372Z,48.00
2019-05-18T09:07:43.994Z,49.63
2019-05-18T09:10:15.850Z,54.61
2019-05-18T09:12:44.569Z,54.33
2019-05-18T09:15:14.937Z,54.01
2019-05-18T09:17:43.669Z,50.39
2019-05-18T09:20:12.671Z,49.28
2019-05-18T09:22:41.270Z,53.51
2019-05-18T09:25:10.586Z,51.76
2019-05-18T09:27:39.276Z,55.50
2019-05-18T09:30:09.100Z,48.66
2019-05-18T09:32:37.998Z,49.20
2019-05-18T09:35:09.577Z,51.87
2019-05-18T09:37:38.264Z,47.44
2019-05-18T09:40:10.249Z,50.52
2019-05-18T09:42:41.982Z,51.58
2019-05-18T09:45:11.197Z,46.29
2019-05-18T09:47:39.892Z,54.02
2019-05-18T09:50:08.904Z,51.63
2019-05-18T09:52:46.126Z,52.81
2019-05-18T09:55:10.966Z,51.59
2019-05-18T09:57:39.650Z,47.19
2019-05-18T10:00:10.568Z,47.90
2019-05-18T10:02:39.679Z,45.47
2019-05-18T10:05:08.389Z,43.48
2019-05-18T10:07:37.192Z,43.11
2019-05-18T10:10:09.843Z,40.14
2019-05-18T10:12:38.666Z,43.03
2019-05-18T10:15:11.271Z,44.58
2019-05-18T10:17:39.950Z,41.07
2019-05-18T10:20:12.460Z,40.15
2019-05-18T10:22:53.421Z,39.58
2019-05-18T10:25:11.902Z,40.23
2019-05-18T10:27:40.623Z,39.85
2019-05-18T10:30:09.964Z,37.98
2019-05-18T10:32:38.696Z,38.83
2019-05-18T10:35:07.971Z,38.46
2019-05-18T10:37:36.659Z,39.27
2019-05-18T10:40:09.926Z,39.56
2019-05-18T10:42:38.607Z,41.51
2019-05-18T10:45:07.456Z,39.43
2019-05-18T10:47:38.154Z,43.53
2019-05-18T10:50:07.381Z,40.43
2019-05-18T10:52:36.128Z,39.64
2019-05-18T10:55:07.274Z,39.78
2019-05-18T10:57:36.117Z,45.07
2019-05-18T11:00:10.387Z,43.10
2019-05-18T11:02:39.155Z,41.82
2019-05-18T11:05:08.043Z,42.79
2019-05-18T11:07:36.649Z,43.21
2019-05-18T11:10:09.570Z,46.11
2019-05-18T11:12:38.271Z,46.49
2019-05-18T11:15:08.961Z,46.66
2019-05-18T11:17:37.674Z,42.65
2019-05-18T11:20:08.099Z,44.49
2019-05-18T11:22:36.805Z,41.04
2019-05-18T11:25:07.379Z,44.25
2019-05-18T11:27:36.006Z,47.55
2019-05-18T11:30:06.995Z,46.94
2019-05-18T11:32:35.670Z,45.82
2019-05-18T11:35:06.430Z,48.08
2019-05-18T11:37:35.046Z,47.08
2019-05-18T11:40:05.607Z,47.10
2019-05-18T11:42:34.215Z,49.91
2019-05-18T11:45:02.902Z,53.32
2019-05-18T11:47:31.578Z,52.62
2019-05-18T11:50:00.226Z,55.49
2019-05-18T11:52:28.903Z,48.84
2019-05-18T11:54:57.524Z,54.22
2019-05-18T11:57:26.218Z,50.98
2019-05-18T11:59:54.920Z,54.26
2019-05-18T12:02:23.617Z,55.86
2019-05-18T12:04:52.285Z,55.27
2019-05-18T12:07:20.906Z,52.38
2019-05-18T12:09:49.579Z,56.11
2019-05-18T12:12:18.293Z,52.61
2019-05-18T12:14:47.306Z,57.08
2019-05-18T12:17:15.982Z,55.24
2019-05-18T12:19:44.606Z,56.96
2019-05-18T12:22:13.396Z,50.48
2019-05-18T12:24:42.124Z,50.72
2019-05-18T12:27:11.013Z,56.11
2019-05-18T12:29:39.631Z,49.26
2019-05-18T12:32:08.388Z,51.49
2019-05-18T12:34:37.021Z,48.63
2019-05-18T12:37:05.728Z,52.05
2019-05-18T12:39:34.373Z,53.79
2019-05-18T12:42:03.050Z,54.23
2019-05-18T12:44:31.701Z,56.98
2019-05-18T12:47:00.442Z,54.65
2019-05-18T12:49:29.107Z,48.63
2019-05-18T12:51:57.821Z,51.16
2019-05-18T12:54:29.592Z,49.35
2019-05-18T12:56:56.852Z,52.73
2019-05-18T12:59:25.550Z,50.05
2019-05-18T13:01:54.231Z,47.53
2019-05-18T13:04:22.933Z,51.05
2019-05-18T13:06:51.653Z,52.41
2019-05-18T13:09:23.265Z,52.68
2019-05-18T13:11:50.715Z,52.28
2019-05-18T13:14:19.464Z,50.42
2019-05-18T13:16:48.128Z,52.23
2019-05-18T13:19:16.800Z,51.63
2019-05-18T13:21:45.414Z,55.29
2019-05-18T13:24:14.096Z,54.79
2019-05-18T13:26:42.817Z,51.60
2019-05-18T13:29:11.423Z,53.25
2019-05-18T13:31:40.143Z,55.78
2019-05-18T13:34:08.983Z,51.41
2019-05-18T13:36:37.682Z,52.42
2019-05-18T13:39:08.041Z,51.74
2019-05-18T13:41:36.726Z,54.75
2019-05-18T13:44:06.668Z,53.33
2019-05-18T13:46:35.328Z,53.03
2019-05-18T13:49:03.963Z,55.41
2019-05-18T13:51:32.609Z,50.15
2019-05-18T13:54:01.296Z,46.16
2019-05-18T13:56:29.919Z,53.81
2019-05-18T13:58:58.642Z,53.57
2019-05-18T14:01:27.324Z,54.96
2019-05-18T14:03:55.968Z,51.18
2019-05-18T14:06:24.640Z,52.03
2019-05-18T14:08:53.348Z,48.94
2019-05-18T14:11:22.488Z,52.25
2019-05-18T14:13:51.288Z,48.66
2019-05-18T14:16:19.955Z,49.51
2019-05-18T14:18:48.655Z,49.09
2019-05-18T14:21:17.274Z,52.46
2019-05-18T14:23:45.959Z,49.21
2019-05-18T14:26:14.661Z,46.10
2019-05-18T14:28:43.283Z,47.26
2019-05-18T14:31:11.953Z,49.69
2019-05-18T14:33:40.632Z,51.19
2019-05-18T14:36:09.280Z,52.21
2019-05-18T14:38:38.533Z,51.53
2019-05-18T14:41:07.280Z,49.50
2019-05-18T14:43:35.933Z,48.95
2019-05-18T14:46:05.938Z,49.60
2019-05-18T14:48:34.615Z,43.24
2019-05-18T14:51:03.407Z,50.04
2019-05-18T14:53:32.106Z,46.17
2019-05-18T14:56:00.963Z,44.06
2019-05-18T14:58:29.729Z,46.06
2019-05-18T15:00:58.715Z,46.28
2019-05-18T15:03:27.595Z,46.45
2019-05-18T15:05:56.375Z,44.53
2019-05-18T15:08:25.120Z,46.54
2019-05-18T15:10:53.817Z,44.75
2019-05-18T15:13:22.497Z,47.51
2019-05-18T15:15:52.781Z,47.02
2019-05-18T15:18:21.549Z,48.28
2019-05-18T15:20:50.158Z,46.44
2019-05-18T15:23:18.861Z,46.09
2019-05-18T15:25:50.537Z,49.89
2019-05-18T15:28:18.302Z,48.63
2019-05-18T15:30:47.034Z,47.65
2019-05-18T15:33:15.761Z,50.45
2019-05-18T15:35:46.559Z,48.44
2019-05-18T15:38:14.869Z,49.03
2019-05-18T15:40:43.498Z,51.05
2019-05-18T15:43:12.211Z,51.25
2019-05-18T15:45:41.045Z,45.13
2019-05-18T15:48:09.701Z,48.03
2019-05-18T15:50:38.338Z,45.71
2019-05-18T15:53:07.088Z,48.24
2019-05-18T15:55:35.711Z,45.06
2019-05-18T15:58:04.446Z,45.60
2019-05-18T16:00:33.095Z,49.84
2019-05-18T16:03:01.762Z,47.34
2019-05-18T16:05:30.396Z,47.69
2019-05-18T16:07:59.191Z,48.40
2019-05-18T16:10:28.027Z,49.35
2019-05-18T16:12:56.843Z,49.33
2019-05-18T16:15:25.588Z,50.37
2019-05-18T16:17:58.179Z,52.01
2019-05-18T16:20:26.339Z,54.35
2019-05-18T16:22:55.051Z,52.72
2019-05-18T16:25:23.689Z,50.55
2019-05-18T16:27:52.393Z,55.03
2019-05-18T16:30:21.302Z,53.49
2019-05-18T16:32:49.928Z,52.13
2019-05-18T16:35:18.677Z,48.60
2019-05-18T16:37:47.383Z,49.36
2019-05-18T16:40:16.312Z,49.15
2019-05-18T16:42:46.698Z,51.40
2019-05-18T16:45:15.602Z,50.67
2019-05-18T16:47:44.400Z,52.65
2019-05-18T16:50:13.532Z,54.67
2019-05-18T16:52:42.496Z,57.77
2019-05-18T16:55:11.665Z,58.89
2019-05-18T16:57:40.411Z,61.46
2019-05-18T17:00:11.192Z,63.02
2019-05-18T17:02:39.996Z,60.89
2019-05-18T17:05:09.165Z,61.07
2019-05-18T17:07:37.888Z,60.49
2019-05-18T17:10:06.822Z,60.72
2019-05-18T17:12:35.543Z,60.15
2019-05-18T17:15:06.060Z,61.24
2019-05-18T17:17:35.445Z,60.94
2019-05-18T17:20:05.327Z,60.27
2019-05-18T17:22:34.068Z,60.14
2019-05-18T17:25:02.729Z,62.29
2019-05-18T17:27:31.327Z,61.50
2019-05-18T17:30:00.060Z,63.01
2019-05-18T17:32:28.680Z,64.05
2019-05-18T17:34:57.380Z,62.31
2019-05-18T17:37:25.988Z,63.92
2019-05-18T17:39:54.616Z,66.81
2019-05-18T17:42:23.693Z,73.55
2019-05-18T17:44:52.398Z,77.49
2019-05-18T17:47:21.934Z,79.07
2019-05-18T17:49:50.549Z,79.60
2019-05-18T17:52:19.232Z,85.34
2019-05-18T17:54:47.846Z,82.60
2019-05-18T17:57:16.537Z,83.37
2019-05-18T17:59:45.300Z,80.05
2019-05-18T18:02:13.975Z,86.43
2019-05-18T18:04:42.623Z,88.55
2019-05-18T18:07:11.318Z,86.29
2019-05-18T18:09:39.980Z,85.60
2019-05-18T18:12:08.651Z,86.75
2019-05-18T18:14:37.266Z,84.11
2019-05-18T18:17:05.974Z,89.29
2019-05-18T18:19:34.595Z,96.66
2019-05-18T18:22:03.272Z,93.12
2019-05-18T18:24:31.970Z,90.46
2019-05-18T18:27:00.661Z,94.68
2019-05-18T18:29:29.283Z,98.56
2019-05-18T18:31:57.941Z,95.36
2019-05-18T18:34:26.675Z,94.10
2019-05-18T18:36:55.314Z,96.36
2019-05-18T18:39:23.996Z,96.25
2019-05-18T18:41:52.707Z,96.97
2019-05-18T18:44:23.137Z,97.53
2019-05-18T18:46:51.810Z,98.31
2019-05-18T18:49:20.582Z,100.00
2019-05-18T18:51:49.267Z,100.00
2019-05-18T18:54:17.969Z,100.00
2019-05-18T18:56:47.274Z,100.00
2019-05-18T18:59:15.953Z,100.00
2019-05-18T19:01:46.392Z,100.00
2019-05-18T19:04:18.155Z,100.00
2019-05-18T19:06:47.047Z,100.00
2019-05-18T19:09:15.813Z,100.00
2019-05-18T19:11:44.599Z,100.00
2019-05-18T19:14:14.329Z,100.00
2019-05-18T19:16:43.072Z,100.00
2019-05-18T19:19:11.863Z,100.00
2019-05-18T19:21:41.334Z,100.00
2019-05-18T19:24:10.454Z,100.00
2019-05-18T19:26:40.838Z,100.00
2019-05-18T19:29:09.771Z,100.00
2019-05-18T19:31:38.504Z,100.00
2019-05-18T19:34:07.187Z,100.00
2019-05-18T19:36:35.968Z,100.00
2019-05-18T19:39:06.172Z,100.00
2019-05-18T19:41:34.870Z,100.00
2019-05-18T19:44:03.556Z,100.00
2019-05-18T19:46:32.340Z,100.00
2019-05-18T19:49:02.592Z,100.00
2019-05-18T19:51:31.285Z,100.00
2019-05-18T19:54:00.024Z,100.00
2019-05-18T19:56:28.682Z,100.00
2019-05-18T19:58:57.438Z,100.00
2019-05-18T20:01:26.227Z,100.00
2019-05-18T20:03:57.004Z,100.00
2019-05-18T20:06:25.768Z,100.00
2019-05-18T20:08:54.500Z,100.00
2019-05-18T20:11:23.204Z,100.00
2019-05-18T20:13:51.961Z,100.00
2019-05-18T20:16:20.886Z,100.00
2019-05-18T20:18:51.244Z,100.00
2019-05-18T20:21:19.975Z,100.00
2019-05-18T20:23:49.995Z,100.00
2019-05-18T20:26:18.706Z,100.00
2019-05-18T20:28:47.413Z,100.00
2019-05-18T20:31:16.053Z,100.00
2019-05-18T20:33:44.785Z,100.00
2019-05-18T20:36:13.562Z,100.00
2019-05-18T20:38:42.276Z,100.00
2019-05-18T20:41:13.011Z,100.00
2019-05-18T20:43:41.673Z,100.00
2019-05-18T20:46:10.370Z,100.00
2019-05-18T20:48:39.007Z,100.00
2019-05-18T20:51:07.702Z,100.00
2019-05-18T20:53:36.394Z,100.00
2019-05-18T20:56:05.062Z,100.00
2019-05-18T20:58:39.995Z,100.00
2019-05-18T21:01:04.246Z,100.00
2019-05-18T21:03:32.954Z,100.00
2019-05-18T21:06:01.722Z,100.00
2019-05-18T21:08:30.367Z,100.00
2019-05-18T21:11:00.616Z,100.00
2019-05-18T21:13:29.266Z,100.00
2019-05-18T21:15:57.964Z,100.00
2019-05-18T21:18:26.620Z,100.00
2019-05-18T21:20:55.302Z,100.00
2019-05-18T21:23:24.003Z,100.00
2019-05-18T21:25:52.652Z,100.00
2019-05-18T21:28:21.412Z,100.00
2019-05-18T21:30:50.053Z,100.00
2019-05-18T21:33:18.770Z,100.00
2019-05-18T21:35:48.957Z,100.00
2019-05-18T21:38:17.647Z,100.00
2019-05-18T21:40:46.278Z,100.00
2019-05-18T21:43:14.975Z,100.00
2019-05-18T21:45:43.648Z,100.00
2019-05-18T21:48:12.559Z,100.00
2019-05-18T21:50:41.248Z,100.00
2019-05-18T21:53:09.953Z,100.00
2019-05-18T21:55:38.580Z,100.00
2019-05-18T21:58:07.274Z,100.00
2019-05-18T22:00:35.911Z,100.00
2019-05-18T22:03:04.703Z,100.00
2019-05-18T22:05:33.394Z,100.00
2019-05-18T22:08:02.034Z,100.00
2019-05-18T22:10:30.735Z,100.00
2019-05-18T22:12:59.378Z,100.00
2019-05-18T22:15:28.172Z,100.00
2019-05-18T22:18:05.583Z,100.00
2019-05-18T22:20:42.123Z,100.00
2019-05-18T22:23:06.257Z,100.00
2019-05-18T22:25:34.968Z,100.00
2019-05-18T22:28:03.713Z,100.00
2019-05-18T22:30:32.469Z,100.00
2019-05-18T22:33:01.122Z,100.00
2019-05-18T22:35:29.845Z,100.00
2019-05-18T22:37:58.505Z,100.00
2019-05-18T22:40:27.200Z,100.00
2019-05-18T22:42:55.834Z,100.00
2019-05-18T22:45:24.538Z,100.00
2019-05-18T22:47:53.253Z,100.00
2019-05-18T22:50:23.437Z,100.00
2019-05-18T22:52:53.710Z,100.00
2019-05-18T22:55:22.410Z,100.00
2019-05-18T22:57:52.536Z,100.00
2019-05-18T23:00:21.339Z,100.00
2019-05-18T23:02:51.549Z,100.00
2019-05-18T23:05:20.256Z,100.00
2019-05-18T23:07:48.944Z,100.00
2019-05-18T23:10:17.659Z,100.00
2019-05-18T23:12:46.372Z,100.00
2019-05-18T23:15:15.061Z,100.00
2019-05-18T23:17:43.763Z,100.00
2019-05-18T23:20:12.394Z,100.00
2019-05-18T23:22:42.564Z,100.00
2019-05-18T23:25:11.435Z,100.00
2019-05-18T23:27:40.115Z,100.00
2019-05-18T23:30:09.361Z,100.00
2019-05-18T23:32:38.109Z,100.00
2019-05-18T23:35:07.065Z,100.00
2019-05-18T23:37:35.734Z,100.00
2019-05-18T23:40:06.409Z,100.00
2019-05-18T23:42:35.079Z,100.00
2019-05-18T23:45:08.385Z,100.00
2019-05-18T23:47:38.159Z,100.00
2019-05-18T23:50:07.261Z,100.00
2019-05-18T23:52:37.574Z,100.00
2019-05-18T23:55:07.182Z,100.00
2019-05-18T23:57:35.986Z,100.00
